Time;durP1;ratioP1;P1;durP2;ratioP2;P2;SDS_P1;SDS_P2;PMS_P1;PMS_P2;Temp;Humidity;BMP_temperature;BMP_pressure;BME280_temperature;BME280_humidity;BME280_pressure;Samples;Min_cycle;Max_cycle;Signal;HPM_P1;HPM_P2
2023/10/25 00:00:28;;;;;;;13.25;4.80;;;;;;;;;;5032961;28;20036;-81
2023/10/25 00:02:54;;;;;;;18.13;4.82;;;;;;;;;;5031854;28;20060;-83
2023/10/25 00:05:20;;;;;;;11.50;4.35;;;;;;;;;;5049815;28;20036;-80
2023/10/25 00:07:46;;;;;;;16.73;4.30;;;;;;;;;;5056102;28;20033;-82
2023/10/25 00:10:12;;;;;;;7.50;4.30;;;;;;;;;;5053148;28;20037;-83
2023/10/25 00:12:38;;;;;;;10.57;4.85;;;;;;;;;;5049887;28;20029;-83
2023/10/25 00:15:05;;;;;;;16.42;5.03;;;;;;;;;;5050735;28;20522;-83
2023/10/25 00:17:31;;;;;;;11.63;4.43;;;;;;;;;;5043092;28;20040;-84
2023/10/25 00:19:57;;;;;;;12.80;4.80;;;;;;;;;;5031254;28;20451;-83
2023/10/25 00:22:23;;;;;;;13.63;5.40;;;;;;;;;;5050399;28;20087;-84
2023/10/25 00:24:50;;;;;;;13.07;5.82;;;;;;;;;;5040142;28;20046;-83
2023/10/25 00:27:16;;;;;;;17.90;5.65;;;;;;;;;;5043501;28;20048;-83
2023/10/25 00:29:42;;;;;;;13.32;5.90;;;;;;;;;;5041811;28;20025;-82
2023/10/25 00:32:14;;;;;;;13.88;5.57;;;;;;;;;;5047421;28;20479;-81
2023/10/25 00:34:40;;;;;;;8.95;5.78;;;;;;;;;;5045334;28;20533;-84
2023/10/25 00:37:06;;;;;;;12.82;5.70;;;;;;;;;;5048960;28;20041;-83
2023/10/25 00:39:32;;;;;;;16.67;6.30;;;;;;;;;;5042655;28;20029;-84
2023/10/25 00:41:58;;;;;;;17.55;10.43;;;;;;;;;;5045497;28;20091;-81
2023/10/25 00:44:24;;;;;;;20.50;10.00;;;;;;;;;;5050152;28;20040;-80
2023/10/25 00:46:50;;;;;;;18.98;6.97;;;;;;;;;;5048812;28;20037;-86
2023/10/25 00:49:17;;;;;;;11.10;6.05;;;;;;;;;;5051175;28;20029;-85
2023/10/25 00:51:43;;;;;;;13.90;6.15;;;;;;;;;;5044640;28;20033;-86
2023/10/25 00:54:10;;;;;;;12.93;6.95;;;;;;;;;;5029038;28;20396;-87
2023/10/25 00:56:37;;;;;;;19.35;6.45;;;;;;;;;;5032737;28;20046;-86
2023/10/25 00:59:04;;;;;;;14.00;7.00;;;;;;;;;;5029097;28;20032;-85
2023/10/25 01:01:30;;;;;;;11.98;6.53;;;;;;;;;;5044723;28;20065;-86
2023/10/25 01:03:56;;;;;;;17.17;7.20;;;;;;;;;;5049084;28;20057;-87
2023/10/25 01:06:23;;;;;;;11.80;6.40;;;;;;;;;;5041741;28;20053;-87
2023/10/25 01:08:50;;;;;;;16.58;7.38;;;;;;;;;;5042115;28;20033;-86
2023/10/25 01:11:16;;;;;;;11.05;6.15;;;;;;;;;;5042663;28;20045;-87
2023/10/25 01:13:42;;;;;;;17.70;8.23;;;;;;;;;;5035400;28;20025;-86
2023/10/25 01:16:08;;;;;;;14.98;6.88;;;;;;;;;;5034517;28;20065;-87
2023/10/25 01:18:34;;;;;;;10.93;7.22;;;;;;;;;;5033444;28;20025;-84
2023/10/25 01:21:01;;;;;;;19.02;6.75;;;;;;;;;;5036318;28;20480;-86
2023/10/25 01:23:27;;;;;;;15.80;7.80;;;;;;;;;;5034710;28;20037;-85
2023/10/25 01:25:53;;;;;;;16.23;7.15;;;;;;;;;;5036585;28;20040;-85
2023/10/25 01:28:19;;;;;;;12.32;6.35;;;;;;;;;;5032115;28;20171;-85
2023/10/25 01:30:45;;;;;;;14.10;7.00;;;;;;;;;;5032810;28;20095;-87
2023/10/25 01:33:11;;;;;;;12.82;6.63;;;;;;;;;;5032158;28;20048;-87
2023/10/25 01:35:37;;;;;;;15.07;6.65;;;;;;;;;;5038702;28;20041;-85
2023/10/25 01:38:03;;;;;;;11.30;6.78;;;;;;;;;;5049469;28;20045;-86
2023/10/25 01:40:30;;;;;;;18.30;6.63;;;;;;;;;;5044367;28;20029;-87
2023/10/25 01:42:56;;;;;;;15.90;6.85;;;;;;;;;;5040022;28;20041;-86
2023/10/25 01:45:23;;;;;;;13.85;6.97;;;;;;;;;;5026654;28;20053;-86
2023/10/25 01:47:49;;;;;;;11.43;7.43;;;;;;;;;;5040170;28;20025;-88
2023/10/25 01:50:15;;;;;;;12.02;6.93;;;;;;;;;;5043553;28;20036;-87
2023/10/25 01:52:41;;;;;;;14.60;6.93;;;;;;;;;;5042189;28;20021;-85
2023/10/25 01:55:07;;;;;;;21.08;7.50;;;;;;;;;;5047601;28;20679;-85
2023/10/25 01:57:34;;;;;;;14.88;7.20;;;;;;;;;;5021927;28;20041;-87
2023/10/25 02:00:06;;;;;;;15.30;7.80;;;;;;;;;;5049083;28;20029;-86
2023/10/25 02:02:32;;;;;;;16.67;7.90;;;;;;;;;;5035254;28;20030;-87
2023/10/25 02:04:58;;;;;;;18.52;8.05;;;;;;;;;;5033726;28;20056;-86
2023/10/25 02:07:24;;;;;;;18.77;7.45;;;;;;;;;;5045645;28;20065;-87
2023/10/25 02:09:50;;;;;;;14.35;7.38;;;;;;;;;;5045695;28;20190;-84
2023/10/25 02:12:16;;;;;;;14.30;7.28;;;;;;;;;;5031705;28;20032;-87
2023/10/25 02:14:42;;;;;;;14.82;8.20;;;;;;;;;;5031621;28;20087;-86
2023/10/25 02:17:08;;;;;;;16.65;8.30;;;;;;;;;;5047883;28;20040;-87
2023/10/25 02:19:36;;;;;;;16.90;7.85;;;;;;;;;;5041225;28;20089;-87
2023/10/25 02:22:02;;;;;;;19.13;8.32;;;;;;;;;;5049900;28;20387;-86
2023/10/25 02:24:28;;;;;;;18.08;8.52;;;;;;;;;;5039111;28;20033;-87
2023/10/25 02:26:54;;;;;;;19.45;8.18;;;;;;;;;;5040795;28;20120;-88
2023/10/25 02:29:21;;;;;;;24.27;9.32;;;;;;;;;;5042812;28;20033;-88
2023/10/25 02:31:47;;;;;;;17.02;8.60;;;;;;;;;;5050572;28;20064;-85
2023/10/25 02:34:13;;;;;;;18.75;8.30;;;;;;;;;;5050376;28;20084;-86
2023/10/25 02:36:39;;;;;;;18.15;8.52;;;;;;;;;;5049088;28;20048;-87
2023/10/25 02:39:05;;;;;;;20.70;9.00;;;;;;;;;;5044068;28;20056;-87
2023/10/25 02:41:31;;;;;;;14.30;8.68;;;;;;;;;;5038930;28;20088;-88
2023/10/25 02:43:58;;;;;;;20.92;9.68;;;;;;;;;;5048391;28;20379;-85
2023/10/25 02:46:24;;;;;;;16.50;9.85;;;;;;;;;;5039184;28;20076;-87
2023/10/25 02:48:52;;;;;;;17.45;8.13;;;;;;;;;;5047405;28;20063;-86
2023/10/25 02:51:18;;;;;;;14.85;8.70;;;;;;;;;;5047961;28;20033;-88
2023/10/25 02:53:44;;;;;;;21.15;10.05;;;;;;;;;;5051807;28;20037;-87
2023/10/25 02:56:10;;;;;;;22.15;9.93;;;;;;;;;;5050522;28;20037;-83
2023/10/25 02:58:37;;;;;;;22.73;9.90;;;;;;;;;;5051122;28;20056;-86
2023/10/25 03:01:03;;;;;;;16.40;9.38;;;;;;;;;;5040357;28;20037;-87
2023/10/25 03:03:30;;;;;;;16.90;10.02;;;;;;;;;;5047780;28;20049;-86
2023/10/25 03:05:56;;;;;;;23.23;9.88;;;;;;;;;;5047155;28;20025;-88
2023/10/25 03:08:22;;;;;;;15.57;9.52;;;;;;;;;;5053790;28;20060;-87
2023/10/25 03:10:48;;;;;;;16.00;8.95;;;;;;;;;;5040505;28;20033;-87
2023/10/25 03:13:14;;;;;;;16.77;9.25;;;;;;;;;;5054631;28;20029;-87
2023/10/25 03:15:40;;;;;;;18.20;9.52;;;;;;;;;;5046251;28;20037;-86
2023/10/25 03:18:07;;;;;;;17.10;10.02;;;;;;;;;;5050679;28;20116;-82
2023/10/25 03:20:33;;;;;;;24.08;10.85;;;;;;;;;;5042388;28;20029;-87
2023/10/25 03:22:59;;;;;;;21.08;10.90;;;;;;;;;;5048129;28;20815;-87
2023/10/25 03:25:25;;;;;;;26.38;12.45;;;;;;;;;;5036739;28;20091;-85
2023/10/25 03:27:52;;;;;;;22.90;11.65;;;;;;;;;;5054436;28;20025;-86
2023/10/25 03:30:18;;;;;;;26.85;12.00;;;;;;;;;;5045482;28;20033;-87
2023/10/25 03:32:44;;;;;;;26.95;12.90;;;;;;;;;;5051338;28;20490;-87
2023/10/25 03:35:11;;;;;;;21.67;11.75;;;;;;;;;;5031554;28;20029;-87
2023/10/25 03:37:39;;;;;;;22.23;12.05;;;;;;;;;;5053159;28;20052;-86
2023/10/25 03:40:08;;;;;;;29.23;13.15;;;;;;;;;;5063122;28;20029;-87
2023/10/25 03:42:35;;;;;;;21.08;13.50;;;;;;;;;;5035598;28;20037;-88
2023/10/25 03:45:01;;;;;;;24.60;13.38;;;;;;;;;;5038125;28;20037;-88
2023/10/25 03:47:28;;;;;;;28.30;14.32;;;;;;;;;;5048852;28;20052;-87
2023/10/25 03:49:54;;;;;;;22.23;12.73;;;;;;;;;;5053532;28;20017;-88
2023/10/25 03:52:20;;;;;;;27.25;14.18;;;;;;;;;;5050178;28;20055;-87
2023/10/25 03:54:49;;;;;;;21.13;14.23;;;;;;;;;;5048694;28;20021;-87
2023/10/25 03:57:15;;;;;;;24.45;14.02;;;;;;;;;;5055080;28;20485;-87
2023/10/25 03:59:41;;;;;;;28.15;13.73;;;;;;;;;;5026708;28;20125;-87
2023/10/25 04:02:07;;;;;;;23.52;14.13;;;;;;;;;;5047088;28;20037;-85
2023/10/25 04:04:33;;;;;;;23.98;13.45;;;;;;;;;;5042506;28;20063;-86
2023/10/25 04:06:59;;;;;;;29.27;15.25;;;;;;;;;;5043573;28;20033;-87
2023/10/25 04:09:25;;;;;;;23.70;12.82;;;;;;;;;;5043140;28;20032;-87
2023/10/25 04:11:51;;;;;;;22.52;13.73;;;;;;;;;;5053757;28;20418;-88
2023/10/25 04:14:17;;;;;;;28.17;14.23;;;;;;;;;;5044689;28;20044;-87
2023/10/25 04:16:44;;;;;;;34.40;14.80;;;;;;;;;;5043590;28;20029;-86
2023/10/25 04:19:10;;;;;;;24.08;13.85;;;;;;;;;;5038173;28;20390;-88
2023/10/25 04:21:36;;;;;;;25.02;14.07;;;;;;;;;;5050126;28;20111;-87
2023/10/25 04:24:02;;;;;;;27.08;13.85;;;;;;;;;;5032653;28;20033;-88
2023/10/25 04:26:28;;;;;;;27.30;13.40;;;;;;;;;;5048482;28;20108;-86
2023/10/25 04:28:54;;;;;;;28.50;14.88;;;;;;;;;;5050605;28;20087;-87
2023/10/25 04:31:20;;;;;;;30.00;15.00;;;;;;;;;;5038663;28;20402;-88
2023/10/25 04:33:47;;;;;;;25.70;15.02;;;;;;;;;;5033961;28;20108;-87
2023/10/25 04:36:13;;;;;;;22.48;13.60;;;;;;;;;;5043705;28;20106;-86
2023/10/25 04:38:40;;;;;;;25.88;14.57;;;;;;;;;;5023105;28;20036;-85
2023/10/25 04:41:06;;;;;;;21.35;13.48;;;;;;;;;;5047788;28;20537;-86
2023/10/25 04:43:32;;;;;;;24.08;13.57;;;;;;;;;;5045437;28;20096;-85
2023/10/25 04:45:58;;;;;;;24.52;12.57;;;;;;;;;;5040266;28;20041;-87
2023/10/25 04:48:24;;;;;;;21.63;13.95;;;;;;;;;;5034443;28;20025;-89
2023/10/25 04:50:51;;;;;;;29.90;13.80;;;;;;;;;;5036568;28;20519;-86
2023/10/25 04:53:18;;;;;;;21.95;13.20;;;;;;;;;;5027271;28;20056;-80
2023/10/25 04:55:45;;;;;;;20.67;12.85;;;;;;;;;;5012205;28;20028;-86
2023/10/25 04:58:11;;;;;;;19.88;13.52;;;;;;;;;;5044132;28;20061;-88
2023/10/25 05:00:37;;;;;;;20.90;12.65;;;;;;;;;;5049115;28;20071;-87
2023/10/25 05:03:08;;;;;;;24.33;13.27;;;;;;;;;;5050909;28;20033;-87
2023/10/25 05:05:36;;;;;;;30.02;13.93;;;;;;;;;;5047921;28;20028;-86
2023/10/25 05:08:03;;;;;;;24.60;13.13;;;;;;;;;;5041840;28;20539;-84
2023/10/25 05:10:30;;;;;;;22.98;12.95;;;;;;;;;;5040974;28;20072;-79
2023/10/25 05:12:56;;;;;;;26.88;15.82;;;;;;;;;;5051041;28;20041;-78
2023/10/25 05:15:24;;;;;;;26.25;12.98;;;;;;;;;;5046716;28;20070;-80
2023/10/25 05:17:51;;;;;;;22.35;12.65;;;;;;;;;;5038170;28;20064;-87
2023/10/25 05:20:17;;;;;;;18.13;10.90;;;;;;;;;;5050157;28;20052;-87
2023/10/25 05:22:46;;;;;;;26.10;11.70;;;;;;;;;;5038858;28;20045;-84
2023/10/25 05:25:12;;;;;;;23.73;11.40;;;;;;;;;;5046210;28;20029;-83
2023/10/25 05:27:39;;;;;;;19.92;12.05;;;;;;;;;;5049664;28;20033;-87
2023/10/25 05:30:07;;;;;;;27.60;10.82;;;;;;;;;;5049710;28;20025;-87
2023/10/25 05:32:34;;;;;;;26.55;11.63;;;;;;;;;;5042271;28;20041;-87
2023/10/25 05:35:01;;;;;;;21.70;10.75;;;;;;;;;;5047268;28;20425;-88
2023/10/25 05:37:27;;;;;;;27.08;11.10;;;;;;;;;;5046686;28;20041;-87
2023/10/25 05:39:54;;;;;;;21.35;10.95;;;;;;;;;;5060725;28;20029;-86
2023/10/25 05:42:20;;;;;;;22.95;10.80;;;;;;;;;;5052133;28;20033;-87
2023/10/25 05:44:54;;;;;;;22.20;11.38;;;;;;;;;;5051478;28;20033;-88
2023/10/25 05:47:25;;;;;;;20.85;9.82;;;;;;;;;;5030089;28;20033;-88
2023/10/25 05:49:51;;;;;;;21.83;10.25;;;;;;;;;;5032536;28;20067;-86
2023/10/25 05:52:17;;;;;;;19.35;10.60;;;;;;;;;;5035742;28;20116;-83
2023/10/25 05:54:43;;;;;;;18.75;10.70;;;;;;;;;;5049826;28;20075;-85
2023/10/25 05:57:10;;;;;;;71.30;40.55;;;;;;;;;;5023247;28;20032;-83
2023/10/25 05:59:36;;;;;;;22.30;10.88;;;;;;;;;;5039329;28;20041;-84
2023/10/25 06:02:02;;;;;;;17.65;9.88;;;;;;;;;;5045616;28;20098;-84
2023/10/25 06:04:30;;;;;;;27.40;10.73;;;;;;;;;;5045085;28;20091;-87
2023/10/25 06:06:56;;;;;;;15.93;9.10;;;;;;;;;;5041858;28;20051;-87
2023/10/25 06:09:23;;;;;;;19.55;9.95;;;;;;;;;;5048655;28;20021;-85
2023/10/25 06:11:49;;;;;;;13.40;9.70;;;;;;;;;;5039035;28;20084;-86
2023/10/25 06:14:15;;;;;;;23.65;9.73;;;;;;;;;;5027902;28;20387;-85
2023/10/25 06:16:41;;;;;;;16.30;10.27;;;;;;;;;;5033810;28;20063;-85
2023/10/25 06:19:07;;;;;;;17.67;9.45;;;;;;;;;;5046288;28;20075;-86
2023/10/25 06:21:33;;;;;;;20.15;9.63;;;;;;;;;;5041446;28;20047;-85
2023/10/25 06:23:59;;;;;;;16.25;10.20;;;;;;;;;;5045959;28;20061;-86
2023/10/25 06:26:25;;;;;;;19.63;11.43;;;;;;;;;;5050285;28;20021;-86
2023/10/25 06:28:51;;;;;;;20.13;11.75;;;;;;;;;;5065004;28;20040;-82
2023/10/25 06:31:17;;;;;;;18.55;9.88;;;;;;;;;;5066146;28;20020;-81
2023/10/25 06:33:43;;;;;;;16.35;10.25;;;;;;;;;;5067747;28;20013;-84
2023/10/25 06:36:10;;;;;;;16.15;10.43;;;;;;;;;;5070891;28;20029;-81
2023/10/25 06:38:37;;;;;;;27.70;13.52;;;;;;;;;;5047959;28;20053;-83
2023/10/25 06:41:03;;;;;;;26.70;14.40;;;;;;;;;;5050425;28;20053;-87
2023/10/25 06:43:30;;;;;;;18.75;10.77;;;;;;;;;;5032295;28;20029;-83
2023/10/25 06:45:56;;;;;;;26.42;11.27;;;;;;;;;;5045576;28;20049;-82
2023/10/25 06:48:23;;;;;;;17.63;10.25;;;;;;;;;;5044323;28;20109;-82
2023/10/25 06:50:50;;;;;;;18.13;9.93;;;;;;;;;;5037530;28;20080;-85
2023/10/25 06:53:17;;;;;;;24.27;9.27;;;;;;;;;;5046175;28;20028;-84
2023/10/25 06:55:43;;;;;;;14.63;9.40;;;;;;;;;;5046430;28;20029;-85
2023/10/25 06:58:12;;;;;;;20.92;10.15;;;;;;;;;;5046687;28;20063;-84
2023/10/25 07:00:39;;;;;;;17.63;8.90;;;;;;;;;;5046644;28;20033;-85
2023/10/25 07:03:08;;;;;;;22.80;9.90;;;;;;;;;;5041326;28;20484;-84
2023/10/25 07:05:34;;;;;;;20.40;10.50;;;;;;;;;;5042369;28;20083;-85
2023/10/25 07:08:00;;;;;;;22.42;10.20;;;;;;;;;;5042606;28;20037;-84
2023/10/25 07:10:27;;;;;;;22.05;10.02;;;;;;;;;;5033069;28;20037;-81
2023/10/25 07:12:53;;;;;;;30.35;15.50;;;;;;;;;;5045619;28;20025;-80
2023/10/25 07:15:19;;;;;;;16.25;10.10;;;;;;;;;;5049248;28;20084;-86
2023/10/25 07:17:45;;;;;;;22.42;9.52;;;;;;;;;;5047539;28;20502;-82
2023/10/25 07:20:11;;;;;;;20.42;10.00;;;;;;;;;;5046470;28;20047;-86
2023/10/25 07:22:38;;;;;;;16.13;9.35;;;;;;;;;;5046812;28;20039;-86
2023/10/25 07:25:05;;;;;;;20.65;10.68;;;;;;;;;;5051920;28;20025;-83
2023/10/25 07:27:31;;;;;;;18.70;8.52;;;;;;;;;;5033513;28;20498;-84
2023/10/25 07:29:57;;;;;;;18.38;10.90;;;;;;;;;;5049435;28;20037;-85
2023/10/25 07:32:23;;;;;;;20.60;12.85;;;;;;;;;;5013398;28;21149;-84
2023/10/25 07:34:50;;;;;;;20.67;10.77;;;;;;;;;;5048753;28;20030;-85
2023/10/25 07:37:16;;;;;;;26.08;11.10;;;;;;;;;;5027906;28;20482;-85
2023/10/25 07:39:42;;;;;;;22.40;12.40;;;;;;;;;;5027122;28;20128;-84
2023/10/25 07:42:08;;;;;;;26.52;13.85;;;;;;;;;;5043210;28;20056;-85
2023/10/25 07:44:34;;;;;;;24.42;13.15;;;;;;;;;;5041833;28;20029;-83
2023/10/25 07:47:03;;;;;;;23.05;11.25;;;;;;;;;;5050399;28;20037;-84
2023/10/25 07:49:29;;;;;;;23.52;10.80;;;;;;;;;;5045738;28;20048;-86
2023/10/25 07:51:55;;;;;;;26.98;11.55;;;;;;;;;;5039395;28;20274;-85
2023/10/25 07:54:22;;;;;;;18.55;10.40;;;;;;;;;;5048094;28;20033;-81
2023/10/25 07:56:48;;;;;;;22.70;9.88;;;;;;;;;;5047779;28;20032;-86
2023/10/25 07:59:14;;;;;;;18.55;10.77;;;;;;;;;;5047811;28;20052;-80
2023/10/25 08:01:41;;;;;;;157.90;104.43;;;;;;;;;;5033369;28;20076;-79
2023/10/25 08:04:08;;;;;;;23.60;15.50;;;;;;;;;;5038580;28;20128;-80
2023/10/25 08:06:36;;;;;;;23.10;11.52;;;;;;;;;;5047836;28;20055;-79
2023/10/25 08:09:02;;;;;;;25.88;10.90;;;;;;;;;;5050361;28;20037;-87
2023/10/25 08:11:28;;;;;;;54.40;27.52;;;;;;;;;;5047726;28;21097;-87
2023/10/25 08:13:56;;;;;;;20.73;12.30;;;;;;;;;;5050748;28;20131;-87
2023/10/25 08:16:22;;;;;;;25.42;11.15;;;;;;;;;;5041952;28;20108;-87
2023/10/25 08:18:49;;;;;;;19.63;10.80;;;;;;;;;;5052720;28;20463;-86
2023/10/25 08:21:16;;;;;;;20.08;9.85;;;;;;;;;;5040472;28;20032;-87
2023/10/25 08:23:45;;;;;;;17.73;10.40;;;;;;;;;;5046783;28;20063;-85
2023/10/25 08:26:11;;;;;;;17.90;9.02;;;;;;;;;;5042588;28;20047;-87
2023/10/25 08:28:37;;;;;;;22.95;10.05;;;;;;;;;;5052626;28;20483;-88
2023/10/25 08:31:13;;;;;;;16.30;7.90;;;;;;;;;;5031571;28;20801;-81
2023/10/25 08:33:39;;;;;;;19.83;9.15;;;;;;;;;;5045405;28;20502;-86
2023/10/25 08:36:06;;;;;;;14.95;8.70;;;;;;;;;;5046072;28;20489;-88
2023/10/25 08:38:32;;;;;;;15.68;8.48;;;;;;;;;;5048998;28;20036;-86
2023/10/25 08:41:02;;;;;;;12.63;7.97;;;;;;;;;;5048639;28;20410;-86
2023/10/25 08:43:28;;;;;;;13.93;8.07;;;;;;;;;;5048277;28;20541;-87
2023/10/25 08:45:56;;;;;;;16.98;7.75;;;;;;;;;;5031765;28;20032;-87
2023/10/25 08:48:23;;;;;;;17.13;8.23;;;;;;;;;;5043315;28;20480;-87
2023/10/25 08:50:49;;;;;;;15.45;7.50;;;;;;;;;;5048791;28;20044;-84
2023/10/25 08:53:16;;;;;;;19.80;8.77;;;;;;;;;;5044689;28;20032;-79
2023/10/25 08:55:42;;;;;;;12.60;7.55;;;;;;;;;;5029383;28;20033;-79
2023/10/25 08:58:09;;;;;;;15.02;7.65;;;;;;;;;;5050384;28;20553;-79
2023/10/25 09:00:35;;;;;;;20.73;7.75;;;;;;;;;;5039919;28;20486;-79
2023/10/25 09:03:01;;;;;;;15.65;7.30;;;;;;;;;;5039746;28;20049;-79
2023/10/25 09:05:41;;;;;;;18.45;7.55;;;;;;;;;;5044271;28;20099;-80
2023/10/25 09:08:16;;;;;;;14.65;7.80;;;;;;;;;;5044259;28;20454;-80
2023/10/25 09:10:43;;;;;;;17.30;7.07;;;;;;;;;;5043791;28;20049;-78
2023/10/25 09:13:16;;;;;;;15.95;7.38;;;;;;;;;;5029389;28;20041;-78
2023/10/25 09:15:42;;;;;;;14.18;7.28;;;;;;;;;;5044804;28;20545;-78
2023/10/25 09:18:08;;;;;;;16.42;7.97;;;;;;;;;;5028934;28;20041;-85
2023/10/25 09:20:34;;;;;;;23.13;11.48;;;;;;;;;;5040558;28;20034;-85
2023/10/25 09:23:13;;;;;;;29.67;17.00;;;;;;;;;;5018181;28;20121;-84
2023/10/25 09:25:39;;;;;;;13.25;6.78;;;;;;;;;;5031768;28;20049;-82
2023/10/25 09:28:14;;;;;;;17.10;7.07;;;;;;;;;;5039642;28;20024;-88
2023/10/25 09:30:40;;;;;;;13.55;5.53;;;;;;;;;;5049871;28;20112;-87
2023/10/25 09:33:07;;;;;;;19.70;6.55;;;;;;;;;;5045398;28;20490;-86
2023/10/25 09:35:33;;;;;;;13.43;6.25;;;;;;;;;;5023002;28;20033;-87
2023/10/25 09:38:00;;;;;;;11.70;5.88;;;;;;;;;;5026941;28;20048;-86
2023/10/25 09:40:26;;;;;;;16.88;6.22;;;;;;;;;;5042143;28;20510;-86
2023/10/25 09:42:56;;;;;;;17.27;7.65;;;;;;;;;;5051095;28;20037;-85
2023/10/25 09:45:28;;;;;;;12.55;6.18;;;;;;;;;;5035937;28;20025;-87
2023/10/25 09:47:55;;;;;;;;;;;;;;;;;;5034648;28;20025;-84
2023/10/25 09:50:33;;;;;;;10.95;6.03;;;;;;;;;;5039677;28;19913;-86
2023/10/25 09:53:03;;;;;;;26.00;10.32;;;;;;;;;;5022738;28;20439;-77
2023/10/25 09:55:31;;;;;;;20.63;11.68;;;;;;;;;;5040458;28;20459;-84
2023/10/25 09:57:58;;;;;;;11.02;6.18;;;;;;;;;;5044249;28;20107;-86
2023/10/25 10:00:24;;;;;;;10.38;5.55;;;;;;;;;;5041290;28;20021;-80
2023/10/25 10:03:03;;;;;;;8.25;5.43;;;;;;;;;;5046380;28;20053;-83
2023/10/25 10:05:38;;;;;;;11.27;5.07;;;;;;;;;;5045107;28;20051;-85
2023/10/25 10:08:30;;;;;;;9.93;5.25;;;;;;;;;;5030273;28;20094;-87
2023/10/25 10:10:58;;;;;;;12.18;5.63;;;;;;;;;;5040803;28;20046;-88
2023/10/25 10:13:26;;;;;;;12.95;5.63;;;;;;;;;;5040815;28;20109;-87
2023/10/25 10:16:05;;;;;;;14.68;5.13;;;;;;;;;;5028370;28;20389;-84
2023/10/25 10:18:33;;;;;;;14.68;6.32;;;;;;;;;;5037536;28;20033;-80
2023/10/25 10:21:02;;;;;;;13.32;6.57;;;;;;;;;;5031195;28;20029;-84
2023/10/25 10:23:35;;;;;;;10.05;5.13;;;;;;;;;;5041284;28;20064;-82
2023/10/25 10:26:02;;;;;;;12.63;6.38;;;;;;;;;;5040046;28;20394;-83
2023/10/25 10:28:41;;;;;;;10.30;5.15;;;;;;;;;;5030098;28;20484;-85
2023/10/25 10:31:08;;;;;;;8.93;4.50;;;;;;;;;;5043217;28;20029;-86
2023/10/25 10:33:42;;;;;;;9.98;5.93;;;;;;;;;;5041916;28;20057;-86
2023/10/25 10:36:08;;;;;;;9.63;4.88;;;;;;;;;;5031624;28;20040;-86
2023/10/25 10:38:53;;;;;;;14.00;6.70;;;;;;;;;;5036791;28;20071;-85
2023/10/25 10:41:29;;;;;;;10.57;5.22;;;;;;;;;;5038454;28;20120;-84
2023/10/25 10:43:56;;;;;;;10.57;5.63;;;;;;;;;;5018101;28;20037;-79
2023/10/25 10:46:22;;;;;;;13.35;5.03;;;;;;;;;;5033658;28;20037;-80
2023/10/25 10:48:50;;;;;;;20.17;12.60;;;;;;;;;;5048755;28;20037;-76
2023/10/25 10:51:16;;;;;;;14.88;7.90;;;;;;;;;;5029135;28;20033;-78
2023/10/25 10:53:44;;;;;;;12.38;6.95;;;;;;;;;;5036498;28;20143;-83
2023/10/25 10:56:10;;;;;;;9.68;5.07;;;;;;;;;;5046545;28;20048;-85
2023/10/25 10:58:36;;;;;;;13.07;4.88;;;;;;;;;;5047071;28;20116;-82
2023/10/25 11:01:02;;;;;;;11.55;5.05;;;;;;;;;;5039427;28;20041;-81
2023/10/25 11:03:28;;;;;;;13.98;5.38;;;;;;;;;;5042139;28;20052;-85
2023/10/25 11:05:54;;;;;;;10.27;5.30;;;;;;;;;;5043210;28;20034;-82
2023/10/25 11:08:23;;;;;;;15.10;4.65;;;;;;;;;;5037297;28;20037;-78
2023/10/25 11:10:49;;;;;;;13.30;5.22;;;;;;;;;;5041036;28;20471;-80
2023/10/25 11:13:17;;;;;;;12.95;5.07;;;;;;;;;;5034558;28;20082;-79
2023/10/25 11:15:43;;;;;;;8.20;4.97;;;;;;;;;;5045265;28;20030;-80
2023/10/25 11:18:09;;;;;;;8.30;5.22;;;;;;;;;;5042154;28;20030;-78
2023/10/25 11:20:35;;;;;;;9.88;5.30;;;;;;;;;;5050399;28;20627;-80
2023/10/25 11:23:04;;;;;;;11.27;4.88;;;;;;;;;;5037753;28;20406;-79
2023/10/25 11:25:30;;;;;;;8.90;5.05;;;;;;;;;;5042642;28;20083;-80
2023/10/25 11:27:57;;;;;;;12.45;5.10;;;;;;;;;;5049541;28;20029;-79
2023/10/25 11:30:23;;;;;;;14.65;5.65;;;;;;;;;;5033273;28;20080;-84
2023/10/25 11:32:49;;;;;;;9.98;4.50;;;;;;;;;;5036324;28;20490;-86
2023/10/25 11:35:23;;;;;;;8.07;5.57;;;;;;;;;;5032961;28;20479;-78
2023/10/25 11:37:51;;;;;;;15.68;4.50;;;;;;;;;;5045348;28;20505;-82
2023/10/25 11:40:17;;;;;;;22.02;11.68;;;;;;;;;;5036260;28;20029;-77
2023/10/25 11:42:44;;;;;;;15.27;7.75;;;;;;;;;;5011812;28;20048;-78
2023/10/25 11:45:10;;;;;;;8.40;5.38;;;;;;;;;;5038364;28;20028;-76
2023/10/25 11:47:39;;;;;;;15.95;5.53;;;;;;;;;;5029344;28;20120;-82
2023/10/25 11:50:05;;;;;;;7.90;4.85;;;;;;;;;;5044194;28;20043;-76
2023/10/25 11:52:32;;;;;;;8.82;4.68;;;;;;;;;;5029791;28;20414;-75
2023/10/25 11:54:59;;;;;;;11.25;5.55;;;;;;;;;;5039132;28;20049;-78
2023/10/25 11:57:29;;;;;;;8.85;5.47;;;;;;;;;;5041408;28;20033;-83
2023/10/25 11:59:55;;;;;;;11.77;5.75;;;;;;;;;;5045252;28;20084;-80
2023/10/25 12:02:22;;;;;;;10.07;4.75;;;;;;;;;;5045432;28;20059;-80
2023/10/25 12:04:48;;;;;;;9.38;4.72;;;;;;;;;;5050267;28;20128;-80
2023/10/25 12:07:15;;;;;;;9.73;4.25;;;;;;;;;;5051453;28;20541;-79
2023/10/25 12:09:42;;;;;;;29.15;16.23;;;;;;;;;;5042614;28;20430;-77
2023/10/25 12:12:09;;;;;;;9.07;4.47;;;;;;;;;;5036736;28;20384;-77
2023/10/25 12:14:35;;;;;;;14.32;4.82;;;;;;;;;;5043693;28;20460;-79
2023/10/25 12:17:01;;;;;;;9.73;4.80;;;;;;;;;;5046848;28;20410;-78
2023/10/25 12:19:27;;;;;;;7.85;4.68;;;;;;;;;;5034829;28;20490;-76
2023/10/25 12:21:56;;;;;;;10.27;4.57;;;;;;;;;;5045154;28;20045;-74
2023/10/25 12:24:26;;;;;;;8.50;4.70;;;;;;;;;;5024171;28;20597;-76
2023/10/25 12:26:52;;;;;;;11.15;4.53;;;;;;;;;;5040490;28;20048;-76
2023/10/25 12:29:18;;;;;;;12.55;5.95;;;;;;;;;;5051083;28;20037;-77
2023/10/25 12:31:45;;;;;;;12.65;5.13;;;;;;;;;;5036985;28;20033;-81
2023/10/25 12:34:11;;;;;;;13.43;5.60;;;;;;;;;;5043425;28;20383;-83
2023/10/25 13:19:09;;;;;;;15.50;9.13;;;;;;;;;;5346920;23;20130;-76
2023/10/25 13:21:38;;;;;;;11.45;6.10;;;;;;;;;;4953217;28;20031;-76
2023/10/25 13:24:05;;;;;;;11.27;4.85;;;;;;;;;;4950682;29;20031;-76
2023/10/25 13:26:31;;;;;;;12.55;5.07;;;;;;;;;;4950575;29;20047;-76
2023/10/25 13:28:59;;;;;;;10.65;6.35;;;;;;;;;;4951789;29;20039;-76
2023/10/25 13:31:25;;;;;;;11.98;6.10;;;;;;;;;;4951953;28;20167;-76
2023/10/25 13:33:51;;;;;;;13.73;6.40;;;;;;;;;;4953534;28;20368;-76
2023/10/25 13:36:17;;;;;;;15.35;6.80;;;;;;;;;;4951541;29;20087;-76
2023/10/25 13:38:43;;;;;;;18.92;12.10;;;;;;;;;;4953345;28;20027;-76
2023/10/25 13:41:09;;;;;;;21.38;15.77;;;;;;;;;;4949897;28;20042;-77
2023/10/25 13:43:39;;;;;;;20.17;13.75;;;;;;;;;;4951711;29;20105;-77
2023/10/25 13:46:06;;;;;;;15.25;7.75;;;;;;;;;;4946797;29;20035;-77
2023/10/25 13:48:32;;;;;;;12.77;6.45;;;;;;;;;;4951444;29;20031;-76
2023/10/25 13:50:58;;;;;;;9.70;5.65;;;;;;;;;;4952743;28;20027;-77
2023/10/25 13:53:24;;;;;;;14.52;7.28;;;;;;;;;;4952000;28;20085;-77
2023/10/25 13:55:53;;;;;;;13.63;6.95;;;;;;;;;;4950636;29;20031;-77
2023/10/25 13:58:19;;;;;;;8.57;5.63;;;;;;;;;;4951879;28;20055;-77
2023/10/25 14:00:45;;;;;;;13.00;6.57;;;;;;;;;;4951557;29;20122;-77
2023/10/25 14:03:12;;;;;;;17.23;6.78;;;;;;;;;;4958793;28;20514;-78
2023/10/25 14:05:42;;;;;;;10.27;6.78;;;;;;;;;;4952922;29;20039;-78
2023/10/25 14:08:09;;;;;;;11.23;6.15;;;;;;;;;;4951957;28;20035;-79
2023/10/25 14:10:44;;;;;;;12.90;7.40;;;;;;;;;;4950596;29;20043;-78
2023/10/25 14:13:11;;;;;;;42.38;27.98;;;;;;;;;;4950063;28;20039;-79
2023/10/25 14:15:37;;;;;;;27.50;16.33;;;;;;;;;;4950590;29;20039;-80
2023/10/25 14:18:04;;;;;;;22.20;11.68;;;;;;;;;;4953426;28;20138;-79
2023/10/25 14:20:30;;;;;;;17.00;11.88;;;;;;;;;;4951589;29;20032;-77
2023/10/25 14:22:56;;;;;;;17.83;9.70;;;;;;;;;;4954065;29;20047;-77
2023/10/25 14:25:22;;;;;;;18.67;11.98;;;;;;;;;;4952775;28;20039;-78
2023/10/25 14:27:48;;;;;;;24.02;13.13;;;;;;;;;;4952909;29;20143;-78
2023/10/25 14:30:14;;;;;;;11.98;9.20;;;;;;;;;;4953234;29;20031;-78
2023/10/25 14:32:40;;;;;;;11.20;9.20;;;;;;;;;;4960927;28;20050;-77
2023/10/25 14:35:07;;;;;;;14.80;7.85;;;;;;;;;;4955076;29;20036;-77
2023/10/25 14:37:33;;;;;;;11.55;7.00;;;;;;;;;;4957625;28;20110;-77
2023/10/25 14:40:00;;;;;;;13.65;6.40;;;;;;;;;;4950699;28;20035;-77
2023/10/25 14:42:26;;;;;;;16.02;8.65;;;;;;;;;;4941250;29;20028;-77
2023/10/25 14:44:52;;;;;;;15.30;8.07;;;;;;;;;;4950385;29;20106;-77
2023/10/25 14:47:18;;;;;;;12.88;7.20;;;;;;;;;;4953648;28;20031;-77
2023/10/25 14:49:44;;;;;;;11.43;6.10;;;;;;;;;;4954660;29;20039;-76
2023/10/25 14:52:10;;;;;;;12.13;7.60;;;;;;;;;;4952861;29;20062;-77
2023/10/25 14:54:36;;;;;;;19.38;8.25;;;;;;;;;;4954016;29;20047;-83
2023/10/25 14:57:02;;;;;;;21.70;12.70;;;;;;;;;;4952760;29;20042;-79
2023/10/25 14:59:31;;;;;;;15.48;8.20;;;;;;;;;;4950529;28;20486;-79
2023/10/25 15:01:58;;;;;;;11.10;7.13;;;;;;;;;;4953330;29;20461;-79
2023/10/25 15:04:28;;;;;;;13.20;8.02;;;;;;;;;;4951085;28;20056;-83
2023/10/25 15:06:54;;;;;;;15.30;8.35;;;;;;;;;;4951672;28;20043;-83